sensor_id;sensor_type;location;lat;lon;timestamp;pressure;altitude;pressure_sealevel;temperature;humidity
73594;BME280;64760;53.404;23.498;2022-12-16T00:00:23;99472.50;;;-5.94;96.51
73594;BME280;64760;53.404;23.498;2022-12-16T00:03:09;99507.25;;;-5.81;96.37
73594;BME280;64760;53.404;23.498;2022-12-16T00:05:36;99494.53;;;-5.85;96.16
73594;BME280;64760;53.404;23.498;2022-12-16T00:08:03;99509.22;;;-5.84;95.90
73594;BME280;64760;53.404;23.498;2022-12-16T00:10:30;99487.63;;;-5.99;95.74
73594;BME280;64760;53.404;23.498;2022-12-16T00:13:16;99500.38;;;-5.94;95.84
73594;BME280;64760;53.404;23.498;2022-12-16T00:15:44;99494.06;;;-6.04;95.53
73594;BME280;64760;53.404;23.498;2022-12-16T00:18:12;99514.13;;;-5.92;95.89
73594;BME280;64760;53.404;23.498;2022-12-16T00:20:46;99505.78;;;-5.97;96.27
73594;BME280;64760;53.404;23.498;2022-12-16T00:23:13;99516.75;;;-5.92;96.29
73594;BME280;64760;53.404;23.498;2022-12-16T00:25:45;99510.16;;;-5.98;95.86
73594;BME280;64760;53.404;23.498;2022-12-16T00:28:16;99486.63;;;-6.10;95.86
73594;BME280;64760;53.404;23.498;2022-12-16T00:30:43;99511.81;;;-5.97;96.00
73594;BME280;64760;53.404;23.498;2022-12-16T00:33:10;99517.03;;;-5.97;96.38
73594;BME280;64760;53.404;23.498;2022-12-16T00:35:37;99480.66;;;-6.12;96.13
73594;BME280;64760;53.404;23.498;2022-12-16T00:38:03;99507.84;;;-6.02;95.86
73594;BME280;64760;53.404;23.498;2022-12-16T00:40:30;99480.44;;;-6.22;95.78
73594;BME280;64760;53.404;23.498;2022-12-16T00:42:55;99493.34;;;-6.21;95.21
73594;BME280;64760;53.404;23.498;2022-12-16T00:45:22;99505.19;;;-6.15;95.50
73594;BME280;64760;53.404;23.498;2022-12-16T00:47:49;99498.13;;;-6.27;95.25
73594;BME280;64760;53.404;23.498;2022-12-16T00:50:17;99496.66;;;-6.31;95.69
73594;BME280;64760;53.404;23.498;2022-12-16T00:52:43;99523.16;;;-6.25;95.46
73594;BME280;64760;53.404;23.498;2022-12-16T00:55:10;99532.38;;;-6.19;95.90
73594;BME280;64760;53.404;23.498;2022-12-16T01:01:01;99518.72;;;-6.37;95.31
73594;BME280;64760;53.404;23.498;2022-12-16T01:03:28;99477.81;;;-6.63;95.19
73594;BME280;64760;53.404;23.498;2022-12-16T01:05:54;99538.56;;;-6.34;95.80
73594;BME280;64760;53.404;23.498;2022-12-16T01:08:21;99536.25;;;-6.39;95.19
73594;BME280;64760;53.404;23.498;2022-12-16T01:10:54;99525.72;;;-6.51;95.02
73594;BME280;64760;53.404;23.498;2022-12-16T01:13:22;99548.34;;;-6.38;95.37
73594;BME280;64760;53.404;23.498;2022-12-16T01:15:50;99526.38;;;-6.48;95.51
73594;BME280;64760;53.404;23.498;2022-12-16T01:18:17;99545.00;;;-6.40;95.58
73594;BME280;64760;53.404;23.498;2022-12-16T01:20:43;99541.75;;;-6.43;95.55
73594;BME280;64760;53.404;23.498;2022-12-16T01:23:09;99523.97;;;-6.51;95.80
73594;BME280;64760;53.404;23.498;2022-12-16T01:25:36;99538.09;;;-6.41;95.66
73594;BME280;64760;53.404;23.498;2022-12-16T01:28:02;99533.84;;;-6.42;95.93
73594;BME280;64760;53.404;23.498;2022-12-16T01:30:30;99521.34;;;-6.51;95.54
73594;BME280;64760;53.404;23.498;2022-12-16T01:32:56;99521.16;;;-6.48;95.51
73594;BME280;64760;53.404;23.498;2022-12-16T01:35:22;99536.25;;;-6.39;95.19
73594;BME280;64760;53.404;23.498;2022-12-16T01:37:49;99535.59;;;-6.42;95.84
73594;BME280;64760;53.404;23.498;2022-12-16T01:40:18;99547.50;;;-6.38;95.73
73594;BME280;64760;53.404;23.498;2022-12-16T01:46:40;99535.22;;;-6.50;96.05
73594;BME280;64760;53.404;23.498;2022-12-16T01:49:26;99532.72;;;-6.52;96.06
73594;BME280;64760;53.404;23.498;2022-12-16T01:51:56;99558.03;;;-6.40;95.47
73594;BME280;64760;53.404;23.498;2022-12-16T01:54:34;99544.09;;;-6.53;95.47
73594;BME280;64760;53.404;23.498;2022-12-16T01:57:05;99543.91;;;-6.50;95.66
73594;BME280;64760;53.404;23.498;2022-12-16T01:59:35;99549.84;;;-6.48;95.85
73594;BME280;64760;53.404;23.498;2022-12-16T02:02:04;99567.44;;;-6.37;95.61
73594;BME280;64760;53.404;23.498;2022-12-16T02:04:31;99559.91;;;-6.42;95.82
73594;BME280;64760;53.404;23.498;2022-12-16T02:06:57;99544.09;;;-6.53;95.22
73594;BME280;64760;53.404;23.498;2022-12-16T02:09:24;99547.81;;;-6.57;95.23
73594;BME280;64760;53.404;23.498;2022-12-16T02:17:22;99573.94;;;-6.44;95.80
73594;BME280;64760;53.404;23.498;2022-12-16T02:31:53;99577.88;;;-6.51;95.65
73594;BME280;64760;53.404;23.498;2022-12-16T02:37:01;99588.22;;;-6.50;95.43
73594;BME280;64760;53.404;23.498;2022-12-16T02:39:36;99574.03;;;-6.60;95.95
73594;BME280;64760;53.404;23.498;2022-12-16T02:44:59;99589.31;;;-6.54;96.01
73594;BME280;64760;53.404;23.498;2022-12-16T02:47:27;99589.59;;;-6.58;94.95
73594;BME280;64760;53.404;23.498;2022-12-16T02:49:54;99577.59;;;-6.61;95.58
73594;BME280;64760;53.404;23.498;2022-12-16T02:52:23;99571.72;;;-6.65;95.76
73594;BME280;64760;53.404;23.498;2022-12-16T02:54:56;99583.19;;;-6.53;96.00
73594;BME280;64760;53.404;23.498;2022-12-16T03:00:07;99570.81;;;-6.49;95.93
73594;BME280;64760;53.404;23.498;2022-12-16T03:05:24;99565.28;;;-6.45;96.13
73594;BME280;64760;53.404;23.498;2022-12-16T03:07:58;99559.63;;;-6.51;95.86
73594;BME280;64760;53.404;23.498;2022-12-16T03:13:56;99569.03;;;-6.49;95.77
73594;BME280;64760;53.404;23.498;2022-12-16T03:16:29;99559.91;;;-6.56;95.42
73594;BME280;64760;53.404;23.498;2022-12-16T03:19:02;99556.00;;;-6.63;95.46
73594;BME280;64760;53.404;23.498;2022-12-16T03:21:42;99588.22;;;-6.50;95.99
73594;BME280;64760;53.404;23.498;2022-12-16T03:24:12;99579.81;;;-6.55;95.55
73594;BME280;64760;53.404;23.498;2022-12-16T03:26:45;99589.22;;;-6.52;95.20
73594;BME280;64760;53.404;23.498;2022-12-16T03:33:09;99595.25;;;-6.52;95.12
73594;BME280;64760;53.404;23.498;2022-12-16T03:35:41;99563.16;;;-6.67;95.42
73594;BME280;64760;53.404;23.498;2022-12-16T03:38:15;99568.00;;;-6.60;95.57
73594;BME280;64760;53.404;23.498;2022-12-16T03:40:47;99563.06;;;-6.51;95.59
73594;BME280;64760;53.404;23.498;2022-12-16T03:43:14;99564.56;;;-6.61;95.85
73594;BME280;64760;53.404;23.498;2022-12-16T03:45:43;99562.78;;;-6.60;96.06
73594;BME280;64760;53.404;23.498;2022-12-16T03:48:12;99578.31;;;-6.45;95.94
73594;BME280;64760;53.404;23.498;2022-12-16T03:50:39;99577.19;;;-6.41;96.08
73594;BME280;64760;53.404;23.498;2022-12-16T03:53:06;99567.59;;;-6.40;95.94
73594;BME280;64760;53.404;23.498;2022-12-16T03:55:33;99571.91;;;-6.39;95.91
73594;BME280;64760;53.404;23.498;2022-12-16T03:57:59;99568.19;;;-6.35;95.91
73594;BME280;64760;53.404;23.498;2022-12-16T04:00:25;99568.94;;;-6.33;96.25
73594;BME280;64760;53.404;23.498;2022-12-16T04:02:52;99556.81;;;-6.34;96.07
73594;BME280;64760;53.404;23.498;2022-12-16T04:05:18;99565.28;;;-6.31;96.19
73594;BME280;64760;53.404;23.498;2022-12-16T04:07:45;99558.03;;;-6.26;96.56
73594;BME280;64760;53.404;23.498;2022-12-16T04:10:11;99555.22;;;-6.23;96.20
73594;BME280;64760;53.404;23.498;2022-12-16T04:12:38;99551.56;;;-6.20;96.15
73594;BME280;64760;53.404;23.498;2022-12-16T04:15:23;99522.72;;;-6.31;95.96
73594;BME280;64760;53.404;23.498;2022-12-16T04:18:14;99539.84;;;-6.27;95.46
73594;BME280;64760;53.404;23.498;2022-12-16T04:21:00;99525.41;;;-6.33;95.49
73594;BME280;64760;53.404;23.498;2022-12-16T04:23:54;99498.97;;;-6.41;95.73
73594;BME280;64760;53.404;23.498;2022-12-16T04:26:41;99500.47;;;-6.37;95.87
73594;BME280;64760;53.404;23.498;2022-12-16T04:36:22;99511.66;;;-6.35;95.42
73594;BME280;64760;53.404;23.498;2022-12-16T04:39:06;99506.00;;;-6.41;95.98
73594;BME280;64760;53.404;23.498;2022-12-16T04:41:52;99491.75;;;-6.50;95.80
73594;BME280;64760;53.404;23.498;2022-12-16T04:44:37;99512.03;;;-6.41;96.13
73594;BME280;64760;53.404;23.498;2022-12-16T04:47:22;99508.69;;;-6.43;95.83
73594;BME280;64760;53.404;23.498;2022-12-16T04:50:06;99492.69;;;-6.51;95.85
73594;BME280;64760;53.404;23.498;2022-12-16T04:52:52;99506.81;;;-6.41;96.16
73594;BME280;64760;53.404;23.498;2022-12-16T04:55:37;99506.63;;;-6.38;96.57
73594;BME280;64760;53.404;23.498;2022-12-16T04:58:23;99491.91;;;-6.39;96.60
73594;BME280;64760;53.404;23.498;2022-12-16T05:01:08;99483.19;;;-6.38;95.84
73594;BME280;64760;53.404;23.498;2022-12-16T05:03:53;99498.41;;;-6.32;96.02
73594;BME280;64760;53.404;23.498;2022-12-16T05:06:38;99476.75;;;-6.46;95.31
73594;BME280;64760;53.404;23.498;2022-12-16T05:09:22;99483.03;;;-6.49;95.61
73594;BME280;64760;53.404;23.498;2022-12-16T05:12:07;99493.78;;;-6.41;95.38
73594;BME280;64760;53.404;23.498;2022-12-16T05:14:52;99491.38;;;-6.44;95.52
73594;BME280;64760;53.404;23.498;2022-12-16T05:17:37;99486.34;;;-6.47;95.91
73594;BME280;64760;53.404;23.498;2022-12-16T05:20:22;99493.88;;;-6.42;96.14
73594;BME280;64760;53.404;23.498;2022-12-16T05:23:06;99488.31;;;-6.50;95.77
73594;BME280;64760;53.404;23.498;2022-12-16T05:25:52;99499.19;;;-6.44;96.13
73594;BME280;64760;53.404;23.498;2022-12-16T05:28:36;99511.66;;;-6.35;95.87
73594;BME280;64760;53.404;23.498;2022-12-16T05:31:22;99510.53;;;-6.31;96.15
73594;BME280;64760;53.404;23.498;2022-12-16T05:34:07;99496.00;;;-6.35;96.02
73594;BME280;64760;53.404;23.498;2022-12-16T05:36:52;99507.09;;;-6.31;95.97
73594;BME280;64760;53.404;23.498;2022-12-16T05:39:37;99512.00;;;-6.27;96.19
73594;BME280;64760;53.404;23.498;2022-12-16T05:42:22;99483.19;;;-6.38;95.87
73594;BME280;64760;53.404;23.498;2022-12-16T05:45:07;99499.06;;;-6.28;96.34
73594;BME280;64760;53.404;23.498;2022-12-16T05:47:54;99484.53;;;-6.32;95.73
73594;BME280;64760;53.404;23.498;2022-12-16T05:53:55;99504.28;;;-6.28;95.60
73594;BME280;64760;53.404;23.498;2022-12-16T05:56:41;99511.72;;;-6.22;96.44
73594;BME280;64760;53.404;23.498;2022-12-16T05:59:25;99501.38;;;-6.24;96.46
73594;BME280;64760;53.404;23.498;2022-12-16T06:02:18;99497.94;;;-6.24;96.14
73594;BME280;64760;53.404;23.498;2022-12-16T06:05:04;99499.81;;;-6.26;96.61
73594;BME280;64760;53.404;23.498;2022-12-16T06:07:51;99481.78;;;-6.43;96.08
73594;BME280;64760;53.404;23.498;2022-12-16T06:10:36;99522.72;;;-6.17;96.00
73594;BME280;64760;53.404;23.498;2022-12-16T06:13:21;99518.94;;;-6.13;96.44
73594;BME280;64760;53.404;23.498;2022-12-16T06:16:06;99524.06;;;-6.11;96.47
73594;BME280;64760;53.404;23.498;2022-12-16T06:18:52;99513.00;;;-6.15;95.78
73594;BME280;64760;53.404;23.498;2022-12-16T06:21:37;99510.31;;;-6.13;96.21
73594;BME280;64760;53.404;23.498;2022-12-16T06:24:22;99494.09;;;-6.19;96.05
73594;BME280;64760;53.404;23.498;2022-12-16T06:27:06;99510.09;;;-6.10;96.27
73594;BME280;64760;53.404;23.498;2022-12-16T06:29:51;99509.06;;;-6.08;96.25
73594;BME280;64760;53.404;23.498;2022-12-16T06:32:36;99514.91;;;-6.04;96.26
73594;BME280;64760;53.404;23.498;2022-12-16T06:35:21;99512.44;;;-6.06;96.38
73594;BME280;64760;53.404;23.498;2022-12-16T06:38:06;99523.31;;;-5.99;96.47
73594;BME280;64760;53.404;23.498;2022-12-16T06:40:51;99510.75;;;-6.07;96.67
73594;BME280;64760;53.404;23.498;2022-12-16T06:43:35;99516.59;;;-6.03;96.29
73594;BME280;64760;53.404;23.498;2022-12-16T06:46:20;99507.00;;;-6.03;95.99
73594;BME280;64760;53.404;23.498;2022-12-16T06:49:05;99532.53;;;-5.94;95.95
73594;BME280;64760;53.404;23.498;2022-12-16T06:52:14;99541.91;;;-5.91;96.47
73594;BME280;64760;53.404;23.498;2022-12-16T06:55:00;99538.47;;;-5.92;96.47
73594;BME280;64760;53.404;23.498;2022-12-16T06:57:45;99538.25;;;-5.89;95.66
73594;BME280;64760;53.404;23.498;2022-12-16T07:00:29;99545.06;;;-5.86;95.94
73594;BME280;64760;53.404;23.498;2022-12-16T07:03:14;99542.75;;;-5.91;96.66
73594;BME280;64760;53.404;23.498;2022-12-16T07:05:59;99546.19;;;-5.90;96.78
73594;BME280;64760;53.404;23.498;2022-12-16T07:08:44;99566.56;;;-5.83;96.89
73594;BME280;64760;53.404;23.498;2022-12-16T07:11:29;99598.16;;;-5.60;96.97
73594;BME280;64760;53.404;23.498;2022-12-16T07:14:36;99598.16;;;-5.60;96.53
73594;BME280;64760;53.404;23.498;2022-12-16T07:17:21;99619.16;;;-5.62;96.01
73594;BME280;64760;53.404;23.498;2022-12-16T07:20:17;99617.75;;;-5.68;95.83
73594;BME280;64760;53.404;23.498;2022-12-16T07:23:02;99616.38;;;-5.73;95.58
73594;BME280;64760;53.404;23.498;2022-12-16T07:25:48;99605.84;;;-5.72;95.75
73594;BME280;64760;53.404;23.498;2022-12-16T07:28:32;99612.97;;;-5.61;96.04
73594;BME280;64760;53.404;23.498;2022-12-16T07:31:18;99615.22;;;-5.55;96.73
73594;BME280;64760;53.404;23.498;2022-12-16T07:34:03;99614.63;;;-5.46;96.49
73594;BME280;64760;53.404;23.498;2022-12-16T07:36:48;99594.97;;;-5.51;96.39
73594;BME280;64760;53.404;23.498;2022-12-16T07:39:35;99621.00;;;-5.37;96.06
73594;BME280;64760;53.404;23.498;2022-12-16T07:42:21;99621.69;;;-5.34;95.90
73594;BME280;64760;53.404;23.498;2022-12-16T07:45:06;99611.09;;;-5.32;96.78
73594;BME280;64760;53.404;23.498;2022-12-16T07:47:51;99592.94;;;-5.34;96.42
73594;BME280;64760;53.404;23.498;2022-12-16T07:50:49;99617.22;;;-5.19;96.29
73594;BME280;64760;53.404;23.498;2022-12-16T07:53:34;99601.22;;;-5.27;96.09
73594;BME280;64760;53.404;23.498;2022-12-16T07:56:18;99589.91;;;-5.28;95.64
73594;BME280;64760;53.404;23.498;2022-12-16T07:59:04;99614.69;;;-5.21;95.63
73594;BME280;64760;53.404;23.498;2022-12-16T08:01:49;99608.19;;;-5.28;96.25
73594;BME280;64760;53.404;23.498;2022-12-16T08:04:34;99604.75;;;-5.28;95.69
73594;BME280;64760;53.404;23.498;2022-12-16T08:07:18;99617.94;;;-5.17;95.56
73594;BME280;64760;53.404;23.498;2022-12-16T08:10:04;99595.69;;;-5.23;95.83
73594;BME280;64760;53.404;23.498;2022-12-16T08:12:48;99602.19;;;-5.15;96.08
73594;BME280;64760;53.404;23.498;2022-12-16T08:15:33;99612.03;;;-5.06;95.81
73594;BME280;64760;53.404;23.498;2022-12-16T08:18:18;99606.50;;;-5.02;95.67
73594;BME280;64760;53.404;23.498;2022-12-16T08:21:03;99607.31;;;-5.01;95.76
73594;BME280;64760;53.404;23.498;2022-12-16T08:23:48;99606.50;;;-5.02;95.59
73594;BME280;64760;53.404;23.498;2022-12-16T08:26:33;99618.44;;;-4.98;95.52
73594;BME280;64760;53.404;23.498;2022-12-16T08:29:17;99609.75;;;-4.98;95.57
73594;BME280;64760;53.404;23.498;2022-12-16T08:32:02;99624.69;;;-4.88;96.45
73594;BME280;64760;53.404;23.498;2022-12-16T08:34:47;99607.47;;;-4.90;95.70
73594;BME280;64760;53.404;23.498;2022-12-16T08:37:32;99595.31;;;-4.91;95.91
73594;BME280;64760;53.404;23.498;2022-12-16T08:40:17;99574.19;;;-4.88;95.74
73594;BME280;64760;53.404;23.498;2022-12-16T08:43:02;99602.97;;;-4.76;94.58
73594;BME280;64760;53.404;23.498;2022-12-16T08:45:47;99593.34;;;-4.75;95.75
73594;BME280;64760;53.404;23.498;2022-12-16T08:48:32;99580.38;;;-4.77;95.46
73594;BME280;64760;53.404;23.498;2022-12-16T08:51:17;99581.63;;;-4.69;95.08
73594;BME280;64760;53.404;23.498;2022-12-16T08:54:02;99601.72;;;-4.57;94.64
73594;BME280;64760;53.404;23.498;2022-12-16T08:56:47;99596.28;;;-4.54;94.78
73594;BME280;64760;53.404;23.498;2022-12-16T08:59:32;99599.09;;;-4.45;94.73
73594;BME280;64760;53.404;23.498;2022-12-16T09:02:17;99594.69;;;-4.44;94.51
73594;BME280;64760;53.404;23.498;2022-12-16T09:05:02;99584.34;;;-4.46;94.69
73594;BME280;64760;53.404;23.498;2022-12-16T09:07:47;99590.94;;;-4.40;95.25
73594;BME280;64760;53.404;23.498;2022-12-16T09:10:32;99574.94;;;-4.48;94.65
73594;BME280;64760;53.404;23.498;2022-12-16T09:13:18;99569.09;;;-4.52;94.21
73594;BME280;64760;53.404;23.498;2022-12-16T09:16:03;99572.94;;;-4.45;93.95
73594;BME280;64760;53.404;23.498;2022-12-16T09:18:48;99556.09;;;-4.41;94.72
73594;BME280;64760;53.404;23.498;2022-12-16T09:21:33;99542.47;;;-4.33;94.98
73594;BME280;64760;53.404;23.498;2022-12-16T09:24:18;99559.19;;;-4.10;95.14
73594;BME280;64760;53.404;23.498;2022-12-16T09:27:03;99547.66;;;-4.08;94.38
73594;BME280;64760;53.404;23.498;2022-12-16T09:29:49;99551.41;;;-3.99;95.00
73594;BME280;64760;53.404;23.498;2022-12-16T09:32:34;99540.94;;;-3.99;93.99
73594;BME280;64760;53.404;23.498;2022-12-16T09:35:39;99531.38;;;-3.88;95.75
73594;BME280;64760;53.404;23.498;2022-12-16T09:38:24;99520.75;;;-3.86;94.84
73594;BME280;64760;53.404;23.498;2022-12-16T09:47:24;99510.56;;;-4.02;94.23
73594;BME280;64760;53.404;23.498;2022-12-16T09:50:24;99519.72;;;-4.07;94.86
73594;BME280;64760;53.404;23.498;2022-12-16T09:53:12;99493.50;;;-4.31;93.97
73594;BME280;64760;53.404;23.498;2022-12-16T09:56:18;99491.84;;;-4.45;93.04
73594;BME280;64760;53.404;23.498;2022-12-16T09:59:10;99496.69;;;-4.39;93.95
73594;BME280;64760;53.404;23.498;2022-12-16T10:01:59;99500.84;;;-4.36;94.97
73594;BME280;64760;53.404;23.498;2022-12-16T10:04:49;99509.81;;;-4.28;95.21
73594;BME280;64760;53.404;23.498;2022-12-16T10:07:40;99520.34;;;-4.16;94.73
73594;BME280;64760;53.404;23.498;2022-12-16T10:10:59;99517.09;;;-4.07;95.35
73594;BME280;64760;53.404;23.498;2022-12-16T10:14:02;99496.16;;;-4.07;94.09
73594;BME280;64760;53.404;23.498;2022-12-16T10:17:14;99474.13;;;-4.29;93.32
73594;BME280;64760;53.404;23.498;2022-12-16T10:20:17;99479.03;;;-4.24;93.59
73594;BME280;64760;53.404;23.498;2022-12-16T10:23:19;99497.31;;;-4.11;94.33
73594;BME280;64760;53.404;23.498;2022-12-16T10:26:21;99495.19;;;-4.30;92.70
73594;BME280;64760;53.404;23.498;2022-12-16T10:29:23;99494.84;;;-4.26;93.64
73594;BME280;64760;53.404;23.498;2022-12-16T10:32:21;99494.50;;;-4.21;93.96
73594;BME280;64760;53.404;23.498;2022-12-16T10:35:23;99497.94;;;-4.08;94.70
73594;BME280;64760;53.404;23.498;2022-12-16T10:41:05;99473.03;;;-4.13;93.41
73594;BME280;64760;53.404;23.498;2022-12-16T10:43:53;99501.44;;;-3.96;94.36
73594;BME280;64760;53.404;23.498;2022-12-16T10:46:39;99485.41;;;-4.15;92.27
73594;BME280;64760;53.404;23.498;2022-12-16T10:49:26;99476.47;;;-4.13;93.46
73594;BME280;64760;53.404;23.498;2022-12-16T10:52:12;99477.56;;;-4.15;92.70
73594;BME280;64760;53.404;23.498;2022-12-16T10:58:16;99474.31;;;-4.19;93.66
73594;BME280;64760;53.404;23.498;2022-12-16T11:01:24;99443.47;;;-4.27;94.71
73594;BME280;64760;53.404;23.498;2022-12-16T11:04:30;99465.91;;;-4.11;94.65
73594;BME280;64760;53.404;23.498;2022-12-16T11:10:27;99434.47;;;-4.22;93.26
73594;BME280;64760;53.404;23.498;2022-12-16T11:13:28;99438.63;;;-4.20;93.13
73594;BME280;64760;53.404;23.498;2022-12-16T11:16:23;99446.56;;;-4.21;94.18
73594;BME280;64760;53.404;23.498;2022-12-16T11:19:27;99451.53;;;-4.30;93.10
73594;BME280;64760;53.404;23.498;2022-12-16T11:22:14;99438.97;;;-4.24;94.02
73594;BME280;64760;53.404;23.498;2022-12-16T11:25:19;99411.28;;;-4.40;94.16
73594;BME280;64760;53.404;23.498;2022-12-16T11:28:12;99419.78;;;-4.49;93.25
73594;BME280;64760;53.404;23.498;2022-12-16T11:31:12;99421.47;;;-4.48;94.71
73594;BME280;64760;53.404;23.498;2022-12-16T11:33:59;99434.03;;;-4.53;92.58
73594;BME280;64760;53.404;23.498;2022-12-16T11:36:48;99416.78;;;-4.55;94.00
73594;BME280;64760;53.404;23.498;2022-12-16T11:39:34;99424.53;;;-4.54;93.72
73594;BME280;64760;53.404;23.498;2022-12-16T11:42:22;99417.03;;;-4.58;93.39
73594;BME280;64760;53.404;23.498;2022-12-16T11:45:13;99422.84;;;-4.55;93.72
73594;BME280;64760;53.404;23.498;2022-12-16T11:48:37;99410.06;;;-4.47;94.36
73594;BME280;64760;53.404;23.498;2022-12-16T11:51:23;99390.97;;;-4.60;94.29
73594;BME280;64760;53.404;23.498;2022-12-16T11:57:02;99411.38;;;-4.65;94.50
73594;BME280;64760;53.404;23.498;2022-12-16T11:59:55;99404.06;;;-4.72;93.71
73594;BME280;64760;53.404;23.498;2022-12-16T12:05:39;99422.34;;;-4.60;94.89
73594;BME280;64760;53.404;23.498;2022-12-16T12:08:44;99420.03;;;-4.52;95.34
73594;BME280;64760;53.404;23.498;2022-12-16T12:11:34;99422.31;;;-4.47;95.33
73594;BME280;64760;53.404;23.498;2022-12-16T12:14:34;99414.50;;;-4.60;94.64
73594;BME280;64760;53.404;23.498;2022-12-16T12:20:45;99424.97;;;-4.60;94.43
73594;BME280;64760;53.404;23.498;2022-12-16T12:26:43;99418.19;;;-4.62;95.02
73594;BME280;64760;53.404;23.498;2022-12-16T12:29:47;99429.34;;;-4.60;95.22
73594;BME280;64760;53.404;23.498;2022-12-16T12:39:18;99408.28;;;-4.70;95.00
73594;BME280;64760;53.404;23.498;2022-12-16T12:42:24;99424.97;;;-4.72;94.10
73594;BME280;64760;53.404;23.498;2022-12-16T12:55:41;99428.03;;;-4.79;95.48
73594;BME280;64760;53.404;23.498;2022-12-16T12:58:29;99431.28;;;-4.88;95.19
73594;BME280;64760;53.404;23.498;2022-12-16T13:01:21;99407.06;;;-5.02;95.23
73594;BME280;64760;53.404;23.498;2022-12-16T13:04:12;99436.13;;;-4.94;95.07
73594;BME280;64760;53.404;23.498;2022-12-16T13:07:00;99408.94;;;-5.17;94.57
73594;BME280;64760;53.404;23.498;2022-12-16T13:16:03;99441.22;;;-5.05;95.23
73594;BME280;64760;53.404;23.498;2022-12-16T13:22:34;99452.22;;;-5.00;95.29
73594;BME280;64760;53.404;23.498;2022-12-16T13:25:50;99456.41;;;-4.98;95.91
73594;BME280;64760;53.404;23.498;2022-12-16T13:28:40;99453.06;;;-5.00;95.73
73594;BME280;64760;53.404;23.498;2022-12-16T13:31:27;99433.63;;;-5.08;95.84
73594;BME280;64760;53.404;23.498;2022-12-16T13:34:23;99445.53;;;-5.04;95.51
73594;BME280;64760;53.404;23.498;2022-12-16T13:37:22;99450.97;;;-5.07;95.91
73594;BME280;64760;53.404;23.498;2022-12-16T13:40:16;99445.97;;;-5.10;96.14
73594;BME280;64760;53.404;23.498;2022-12-16T13:46:22;99442.09;;;-5.17;95.99
73594;BME280;64760;53.404;23.498;2022-12-16T13:52:31;99437.91;;;-5.20;96.08
73594;BME280;64760;53.404;23.498;2022-12-16T13:55:27;99430.06;;;-5.20;96.44
73594;BME280;64760;53.404;23.498;2022-12-16T13:58:39;99417.53;;;-5.28;96.21
73594;BME280;64760;53.404;23.498;2022-12-16T14:01:41;99442.81;;;-5.15;96.25
73594;BME280;64760;53.404;23.498;2022-12-16T14:04:48;99450.75;;;-5.17;96.17
73594;BME280;64760;53.404;23.498;2022-12-16T14:07:37;99453.28;;;-5.15;96.40
73594;BME280;64760;53.404;23.498;2022-12-16T14:10:28;99460.16;;;-5.14;96.80
73594;BME280;64760;53.404;23.498;2022-12-16T14:19:27;99456.63;;;-5.26;96.80
73594;BME280;64760;53.404;23.498;2022-12-16T14:25:19;99459.94;;;-5.24;96.32
73594;BME280;64760;53.404;23.498;2022-12-16T14:31:03;99452.41;;;-5.29;96.34
73594;BME280;64760;53.404;23.498;2022-12-16T14:33:53;99456.63;;;-5.26;97.04
73594;BME280;64760;53.404;23.498;2022-12-16T14:36:39;99442.19;;;-5.32;97.26
73594;BME280;64760;53.404;23.498;2022-12-16T14:39:29;99447.63;;;-5.22;96.66
73594;BME280;64760;53.404;23.498;2022-12-16T14:42:27;99454.31;;;-5.18;96.54
73594;BME280;64760;53.404;23.498;2022-12-16T14:48:27;99462.03;;;-5.16;96.98
73594;BME280;64760;53.404;23.498;2022-12-16T14:57:18;99438.44;;;-5.15;96.90
73594;BME280;64760;53.404;23.498;2022-12-16T15:00:14;99433.09;;;-5.13;97.15
73594;BME280;64760;53.404;23.498;2022-12-16T15:06:05;99435.69;;;-5.13;96.79
73594;BME280;64760;53.404;23.498;2022-12-16T15:09:01;99433.84;;;-5.11;97.16
73594;BME280;64760;53.404;23.498;2022-12-16T15:11:51;99438.53;;;-5.16;97.39
73594;BME280;64760;53.404;23.498;2022-12-16T15:14:42;99445.44;;;-5.15;97.00
73594;BME280;64760;53.404;23.498;2022-12-16T15:17:44;99450.34;;;-5.11;96.79
73594;BME280;64760;53.404;23.498;2022-12-16T15:20:36;99424.53;;;-5.15;97.07
73594;BME280;64760;53.404;23.498;2022-12-16T15:23:30;99428.38;;;-5.21;96.96
73594;BME280;64760;53.404;23.498;2022-12-16T15:26:24;99444.28;;;-5.11;96.81
73594;BME280;64760;53.404;23.498;2022-12-16T15:29:34;99449.28;;;-5.08;96.93
73594;BME280;64760;53.404;23.498;2022-12-16T15:32:27;99439.06;;;-5.11;96.76
73594;BME280;64760;53.404;23.498;2022-12-16T15:39:36;99445.22;;;-5.12;97.03
73594;BME280;64760;53.404;23.498;2022-12-16T15:42:27;99451.38;;;-5.13;96.88
73594;BME280;64760;53.404;23.498;2022-12-16T15:48:12;99441.13;;;-5.16;96.71
73594;BME280;64760;53.404;23.498;2022-12-16T15:51:01;99457.66;;;-5.16;96.77
73594;BME280;64760;53.404;23.498;2022-12-16T15:54:00;99453.06;;;-5.12;96.83
73594;BME280;64760;53.404;23.498;2022-12-16T15:56:45;99437.81;;;-5.18;97.17
73594;BME280;64760;53.404;23.498;2022-12-16T15:59:33;99452.44;;;-5.03;97.42
73594;BME280;64760;53.404;23.498;2022-12-16T16:02:25;99430.28;;;-5.10;97.22
73594;BME280;64760;53.404;23.498;2022-12-16T16:05:12;99445.97;;;-4.98;97.22
73594;BME280;64760;53.404;23.498;2022-12-16T16:08:01;99435.19;;;-5.06;97.02
73594;BME280;64760;53.404;23.498;2022-12-16T16:10:47;99432.59;;;-5.06;97.40
73594;BME280;64760;53.404;23.498;2022-12-16T16:13:34;99427.69;;;-5.10;96.84
73594;BME280;64760;53.404;23.498;2022-12-16T16:16:29;99413.25;;;-5.16;97.30
73594;BME280;64760;53.404;23.498;2022-12-16T16:19:21;99425.69;;;-5.19;97.01
73594;BME280;64760;53.404;23.498;2022-12-16T16:22:13;99442.59;;;-5.12;96.52
73594;BME280;64760;53.404;23.498;2022-12-16T16:24:58;99419.53;;;-5.18;96.71
73594;BME280;64760;53.404;23.498;2022-12-16T16:27:44;99429.22;;;-5.21;96.75
73594;BME280;64760;53.404;23.498;2022-12-16T16:30:29;99450.97;;;-5.07;97.07
73594;BME280;64760;53.404;23.498;2022-12-16T16:33:14;99454.72;;;-5.11;96.77
73594;BME280;64760;53.404;23.498;2022-12-16T16:35:59;99449.72;;;-5.14;97.01
73594;BME280;64760;53.404;23.498;2022-12-16T16:38:45;99451.91;;;-5.08;97.04
73594;BME280;64760;53.404;23.498;2022-12-16T16:41:29;99470.19;;;-5.08;96.82
73594;BME280;64760;53.404;23.498;2022-12-16T16:44:15;99458.72;;;-5.18;96.77